sensor_id;sensor_type;location;lat;lon;timestamp;pressure;altitude;pressure_sealevel;temperature;humidity
79028;BME280;68427;48.476;19.102;2023-06-14T00:01:43;97254.47;;;10.14;80.00
79028;BME280;68427;48.476;19.102;2023-06-14T00:04:11;97256.06;;;10.08;79.41
79028;BME280;68427;48.476;19.102;2023-06-14T00:06:36;97250.00;;;10.01;79.52
79028;BME280;68427;48.476;19.102;2023-06-14T00:09:04;97251.00;;;9.93;81.05
79028;BME280;68427;48.476;19.102;2023-06-14T00:11:30;97250.38;;;9.91;81.30
79028;BME280;68427;48.476;19.102;2023-06-14T00:13:56;97251.13;;;9.85;81.43
79028;BME280;68427;48.476;19.102;2023-06-14T00:16:22;97249.50;;;9.78;81.20
79028;BME280;68427;48.476;19.102;2023-06-14T00:18:48;97255.13;;;9.74;81.06
79028;BME280;68427;48.476;19.102;2023-06-14T00:21:14;97256.16;;;9.73;81.75
79028;BME280;68427;48.476;19.102;2023-06-14T00:23:40;97255.72;;;9.70;80.90
79028;BME280;68427;48.476;19.102;2023-06-14T00:26:07;97252.47;;;9.68;80.72
79028;BME280;68427;48.476;19.102;2023-06-14T00:28:33;97259.91;;;9.64;80.26
79028;BME280;68427;48.476;19.102;2023-06-14T00:30:58;97260.09;;;9.56;81.21
79028;BME280;68427;48.476;19.102;2023-06-14T00:33:24;97254.44;;;9.52;81.07
79028;BME280;68427;48.476;19.102;2023-06-14T00:35:51;97255.84;;;9.48;81.11
79028;BME280;68427;48.476;19.102;2023-06-14T00:38:19;97262.25;;;9.46;81.31
79028;BME280;68427;48.476;19.102;2023-06-14T00:40:44;97255.59;;;9.43;81.35
79028;BME280;68427;48.476;19.102;2023-06-14T00:43:12;97253.75;;;9.37;81.92
79028;BME280;68427;48.476;19.102;2023-06-14T00:45:37;97253.72;;;9.30;82.00
79028;BME280;68427;48.476;19.102;2023-06-14T00:48:04;97256.91;;;9.26;81.77
79028;BME280;68427;48.476;19.102;2023-06-14T00:50:32;97250.03;;;9.18;82.25
79028;BME280;68427;48.476;19.102;2023-06-14T00:52:58;97258.47;;;9.20;81.78
79028;BME280;68427;48.476;19.102;2023-06-14T00:55:25;97254.25;;;9.19;81.62
79028;BME280;68427;48.476;19.102;2023-06-14T00:57:51;97258.44;;;9.14;81.72
79028;BME280;68427;48.476;19.102;2023-06-14T01:00:18;97251.56;;;9.06;81.87
79028;BME280;68427;48.476;19.102;2023-06-14T01:02:44;97243.91;;;9.04;82.06
79028;BME280;68427;48.476;19.102;2023-06-14T01:05:10;97246.28;;;8.99;81.99
79028;BME280;68427;48.476;19.102;2023-06-14T01:07:46;97252.69;;;8.97;82.00
79028;BME280;68427;48.476;19.102;2023-06-14T01:10:35;97245.66;;;8.97;82.07
79028;BME280;68427;48.476;19.102;2023-06-14T01:13:09;97242.25;;;8.97;81.73
79028;BME280;68427;48.476;19.102;2023-06-14T01:15:38;97241.44;;;8.96;80.95
79028;BME280;68427;48.476;19.102;2023-06-14T01:18:05;97247.63;;;8.89;81.36
79028;BME280;68427;48.476;19.102;2023-06-14T01:20:32;97242.91;;;8.77;81.72
79028;BME280;68427;48.476;19.102;2023-06-14T01:22:59;97246.06;;;8.73;82.86
79028;BME280;68427;48.476;19.102;2023-06-14T01:25:26;97245.09;;;8.74;82.64
79028;BME280;68427;48.476;19.102;2023-06-14T01:27:53;97245.47;;;8.71;82.98
79028;BME280;68427;48.476;19.102;2023-06-14T01:30:21;97239.44;;;8.70;82.85
79028;BME280;68427;48.476;19.102;2023-06-14T01:32:49;97247.66;;;8.67;82.77
79028;BME280;68427;48.476;19.102;2023-06-14T01:35:16;97249.38;;;8.60;82.91
79028;BME280;68427;48.476;19.102;2023-06-14T01:37:42;97249.16;;;8.55;83.28
79028;BME280;68427;48.476;19.102;2023-06-14T01:40:11;97250.16;;;8.54;82.62
79028;BME280;68427;48.476;19.102;2023-06-14T01:42:38;97258.72;;;8.48;82.33
79028;BME280;68427;48.476;19.102;2023-06-14T01:45:06;97259.81;;;8.38;82.47
79028;BME280;68427;48.476;19.102;2023-06-14T01:47:33;97259.19;;;8.36;82.57
79028;BME280;68427;48.476;19.102;2023-06-14T01:50:00;97253.56;;;8.33;82.37
79028;BME280;68427;48.476;19.102;2023-06-14T01:52:26;97256.53;;;8.30;82.07
79028;BME280;68427;48.476;19.102;2023-06-14T01:54:52;97252.31;;;8.29;82.44
79028;BME280;68427;48.476;19.102;2023-06-14T01:57:19;97252.44;;;8.20;82.25
79028;BME280;68427;48.476;19.102;2023-06-14T01:59:46;97265.09;;;8.23;82.34
79028;BME280;68427;48.476;19.102;2023-06-14T02:02:14;97262.41;;;8.17;82.15
79028;BME280;68427;48.476;19.102;2023-06-14T02:04:40;97269.44;;;8.16;82.33
79028;BME280;68427;48.476;19.102;2023-06-14T02:07:06;97270.63;;;8.14;82.39
79028;BME280;68427;48.476;19.102;2023-06-14T02:09:31;97260.56;;;8.11;82.33
79028;BME280;68427;48.476;19.102;2023-06-14T02:11:57;97259.94;;;8.09;82.14
79028;BME280;68427;48.476;19.102;2023-06-14T02:14:24;97267.50;;;8.04;82.64
79028;BME280;68427;48.476;19.102;2023-06-14T02:16:50;97260.06;;;8.00;83.20
79028;BME280;68427;48.476;19.102;2023-06-14T02:19:16;97267.25;;;7.98;81.86
79028;BME280;68427;48.476;19.102;2023-06-14T02:21:42;97271.41;;;7.93;82.53
79028;BME280;68427;48.476;19.102;2023-06-14T02:24:08;97271.75;;;7.90;83.01
79028;BME280;68427;48.476;19.102;2023-06-14T02:26:33;97261.06;;;7.85;83.44
79028;BME280;68427;48.476;19.102;2023-06-14T02:28:59;97265.03;;;7.81;83.19
79028;BME280;68427;48.476;19.102;2023-06-14T02:31:26;97274.84;;;7.78;83.08
79028;BME280;68427;48.476;19.102;2023-06-14T02:33:52;97278.63;;;7.76;82.77
79028;BME280;68427;48.476;19.102;2023-06-14T02:36:18;97277.97;;;7.74;83.47
79028;BME280;68427;48.476;19.102;2023-06-14T02:38:44;97271.50;;;7.70;83.32
79028;BME280;68427;48.476;19.102;2023-06-14T02:41:10;97270.72;;;7.69;83.70
79028;BME280;68427;48.476;19.102;2023-06-14T02:43:36;97270.06;;;7.67;83.45
79028;BME280;68427;48.476;19.102;2023-06-14T02:46:02;97269.47;;;7.65;84.00
79028;BME280;68427;48.476;19.102;2023-06-14T02:48:29;97271.25;;;7.65;83.77
79028;BME280;68427;48.476;19.102;2023-06-14T02:50:55;97272.41;;;7.62;83.69
79028;BME280;68427;48.476;19.102;2023-06-14T02:53:22;97262.81;;;7.63;83.75
79028;BME280;68427;48.476;19.102;2023-06-14T02:55:47;97262.81;;;7.63;82.88
79028;BME280;68427;48.476;19.102;2023-06-14T02:58:13;97269.00;;;7.62;83.82
79028;BME280;68427;48.476;19.102;2023-06-14T03:00:39;97275.22;;;7.61;83.36
79028;BME280;68427;48.476;19.102;2023-06-14T03:03:06;97270.81;;;7.61;83.77
79028;BME280;68427;48.476;19.102;2023-06-14T03:05:41;97273.78;;;7.58;83.97
79028;BME280;68427;48.476;19.102;2023-06-14T03:08:11;97268.56;;;7.58;83.60
79028;BME280;68427;48.476;19.102;2023-06-14T03:10:42;97269.75;;;7.55;84.42
79028;BME280;68427;48.476;19.102;2023-06-14T03:13:08;97273.16;;;7.56;83.98
79028;BME280;68427;48.476;19.102;2023-06-14T03:15:34;97270.38;;;7.57;84.22
79028;BME280;68427;48.476;19.102;2023-06-14T03:18:00;97269.22;;;7.60;84.19
79028;BME280;68427;48.476;19.102;2023-06-14T03:20:26;97277.03;;;7.60;83.75
79028;BME280;68427;48.476;19.102;2023-06-14T03:22:55;97268.38;;;7.60;83.99
79028;BME280;68427;48.476;19.102;2023-06-14T03:25:21;97270.38;;;7.57;83.68
79028;BME280;68427;48.476;19.102;2023-06-14T03:27:49;97273.78;;;7.58;84.20
79028;BME280;68427;48.476;19.102;2023-06-14T03:30:15;97282.25;;;7.60;83.95
79028;BME280;68427;48.476;19.102;2023-06-14T03:32:41;97277.03;;;7.60;83.99
79028;BME280;68427;48.476;19.102;2023-06-14T03:35:07;97277.28;;;7.65;84.02
79028;BME280;68427;48.476;19.102;2023-06-14T03:37:33;97276.28;;;7.66;83.54
79028;BME280;68427;48.476;19.102;2023-06-14T03:40:00;97288.94;;;7.69;84.02
79028;BME280;68427;48.476;19.102;2023-06-14T03:42:26;97284.38;;;7.71;84.32
79028;BME280;68427;48.476;19.102;2023-06-14T03:44:52;97286.81;;;7.73;83.87
79028;BME280;68427;48.476;19.102;2023-06-14T03:47:17;97288.03;;;7.77;84.04
79028;BME280;68427;48.476;19.102;2023-06-14T03:49:43;97293.78;;;7.87;83.47
79028;BME280;68427;48.476;19.102;2023-06-14T03:52:09;97293.25;;;7.92;83.80
79028;BME280;68427;48.476;19.102;2023-06-14T03:54:34;97287.84;;;7.93;84.35
79028;BME280;68427;48.476;19.102;2023-06-14T03:57:02;97296.47;;;7.94;84.46
79028;BME280;68427;48.476;19.102;2023-06-14T03:59:27;97294.59;;;8.03;83.84
79028;BME280;68427;48.476;19.102;2023-06-14T04:01:54;97290.69;;;8.13;83.98
79028;BME280;68427;48.476;19.102;2023-06-14T04:04:20;97292.16;;;8.22;84.14
79028;BME280;68427;48.476;19.102;2023-06-14T04:06:46;97288.75;;;8.22;84.38
79028;BME280;68427;48.476;19.102;2023-06-14T04:09:13;97290.63;;;8.28;84.55
79028;BME280;68427;48.476;19.102;2023-06-14T04:11:39;97303.22;;;8.39;84.53
79028;BME280;68427;48.476;19.102;2023-06-14T04:14:06;97296.25;;;8.47;84.62
79028;BME280;68427;48.476;19.102;2023-06-14T04:16:32;97295.72;;;8.51;84.59
79028;BME280;68427;48.476;19.102;2023-06-14T04:18:57;97291.13;;;8.53;85.21
79028;BME280;68427;48.476;19.102;2023-06-14T04:21:23;97298.44;;;8.64;84.74
79028;BME280;68427;48.476;19.102;2023-06-14T04:23:49;97297.75;;;8.77;84.10
79028;BME280;68427;48.476;19.102;2023-06-14T04:26:18;97289.78;;;8.85;83.83
79028;BME280;68427;48.476;19.102;2023-06-14T04:28:45;97294.66;;;8.95;84.44
79028;BME280;68427;48.476;19.102;2023-06-14T04:31:13;97298.97;;;9.03;83.87
79028;BME280;68427;48.476;19.102;2023-06-14T04:33:39;97296.84;;;9.13;83.46
79028;BME280;68427;48.476;19.102;2023-06-14T04:36:09;97300.28;;;9.20;83.84
79028;BME280;68427;48.476;19.102;2023-06-14T04:38:37;97306.34;;;9.27;83.77
79028;BME280;68427;48.476;19.102;2023-06-14T04:41:02;97301.38;;;9.33;84.12
79028;BME280;68427;48.476;19.102;2023-06-14T04:43:28;97305.63;;;9.40;84.08
79028;BME280;68427;48.476;19.102;2023-06-14T04:45:54;97309.72;;;9.49;84.35
79028;BME280;68427;48.476;19.102;2023-06-14T04:48:23;97313.19;;;9.57;84.78
79028;BME280;68427;48.476;19.102;2023-06-14T04:50:50;97309.44;;;9.66;84.77
79028;BME280;68427;48.476;19.102;2023-06-14T04:53:19;97320.34;;;9.76;84.96
79028;BME280;68427;48.476;19.102;2023-06-14T04:55:47;97319.59;;;9.95;84.80
79028;BME280;68427;48.476;19.102;2023-06-14T04:58:13;97323.72;;;10.18;84.98
79028;BME280;68427;48.476;19.102;2023-06-14T05:00:39;97323.63;;;10.46;83.53
79028;BME280;68427;48.476;19.102;2023-06-14T05:03:07;97322.88;;;10.72;83.04
79028;BME280;68427;48.476;19.102;2023-06-14T05:05:35;97324.72;;;10.98;81.05
79028;BME280;68427;48.476;19.102;2023-06-14T05:08:00;97331.75;;;11.18;80.61
79028;BME280;68427;48.476;19.102;2023-06-14T05:10:26;97333.16;;;11.40;79.92
79028;BME280;68427;48.476;19.102;2023-06-14T05:12:52;97333.91;;;11.67;79.37
79028;BME280;68427;48.476;19.102;2023-06-14T05:15:18;97330.63;;;11.99;77.98
79028;BME280;68427;48.476;19.102;2023-06-14T05:17:45;97333.28;;;12.37;76.18
79028;BME280;68427;48.476;19.102;2023-06-14T05:20:13;97336.56;;;12.64;75.42
79028;BME280;68427;48.476;19.102;2023-06-14T05:22:40;97321.16;;;13.00;74.48
79028;BME280;68427;48.476;19.102;2023-06-14T05:25:06;97320.38;;;13.24;74.39
79028;BME280;68427;48.476;19.102;2023-06-14T05:27:32;97321.97;;;13.69;72.90
79028;BME280;68427;48.476;19.102;2023-06-14T05:30:01;97317.94;;;14.03;71.30
79028;BME280;68427;48.476;19.102;2023-06-14T05:32:26;97316.50;;;14.37;70.73
79028;BME280;68427;48.476;19.102;2023-06-14T05:34:52;97316.53;;;14.67;69.10
79028;BME280;68427;48.476;19.102;2023-06-14T05:37:18;97329.19;;;15.01;68.87
79028;BME280;68427;48.476;19.102;2023-06-14T05:39:45;97320.06;;;15.39;67.17
79028;BME280;68427;48.476;19.102;2023-06-14T05:42:10;97314.84;;;15.67;66.09
79028;BME280;68427;48.476;19.102;2023-06-14T05:44:36;97323.00;;;16.01;64.68
79028;BME280;68427;48.476;19.102;2023-06-14T05:47:02;97325.66;;;16.30;64.40
79028;BME280;68427;48.476;19.102;2023-06-14T05:49:28;97330.25;;;16.63;61.35
79028;BME280;68427;48.476;19.102;2023-06-14T05:51:53;97324.22;;;16.96;60.43
79028;BME280;68427;48.476;19.102;2023-06-14T05:54:19;97317.25;;;17.41;58.93
79028;BME280;68427;48.476;19.102;2023-06-14T05:56:46;97316.66;;;17.78;57.39
79028;BME280;68427;48.476;19.102;2023-06-14T05:59:12;97316.59;;;18.11;55.83
79028;BME280;68427;48.476;19.102;2023-06-14T06:01:37;97319.94;;;18.78;55.23
79028;BME280;68427;48.476;19.102;2023-06-14T06:04:05;97320.66;;;19.33;53.74
79028;BME280;68427;48.476;19.102;2023-06-14T06:06:31;97315.94;;;19.82;51.32
79028;BME280;68427;48.476;19.102;2023-06-14T06:08:58;97307.53;;;20.16;50.08
79028;BME280;68427;48.476;19.102;2023-06-14T06:11:24;97312.59;;;19.60;50.23
79028;BME280;68427;48.476;19.102;2023-06-14T06:13:51;97310.81;;;20.44;48.87
79028;BME280;68427;48.476;19.102;2023-06-14T06:16:16;97316.25;;;20.80;48.19
79028;BME280;68427;48.476;19.102;2023-06-14T06:18:42;97317.84;;;21.22;46.59
79028;BME280;68427;48.476;19.102;2023-06-14T06:21:08;97317.28;;;21.61;46.21
79028;BME280;68427;48.476;19.102;2023-06-14T06:23:33;97320.19;;;21.64;45.16
79028;BME280;68427;48.476;19.102;2023-06-14T06:25:59;97313.72;;;21.91;43.30
79028;BME280;68427;48.476;19.102;2023-06-14T06:28:25;97321.00;;;21.70;43.88
79028;BME280;68427;48.476;19.102;2023-06-14T06:30:52;97317.69;;;21.98;44.19
79028;BME280;68427;48.476;19.102;2023-06-14T06:33:18;97314.09;;;22.34;44.10
79028;BME280;68427;48.476;19.102;2023-06-14T06:35:44;97318.03;;;22.86;43.84
79028;BME280;68427;48.476;19.102;2023-06-14T06:38:10;97311.53;;;23.02;43.26
79028;BME280;68427;48.476;19.102;2023-06-14T06:40:36;97318.78;;;23.31;41.71
79028;BME280;68427;48.476;19.102;2023-06-14T06:43:02;97321.28;;;23.46;41.76
79028;BME280;68427;48.476;19.102;2023-06-14T06:45:28;97313.16;;;23.57;41.47
79028;BME280;68427;48.476;19.102;2023-06-14T06:47:55;97316.59;;;23.62;40.63
79028;BME280;68427;48.476;19.102;2023-06-14T06:50:21;97313.06;;;24.15;40.83
79028;BME280;68427;48.476;19.102;2023-06-14T06:52:50;97311.66;;;24.98;40.01
79028;BME280;68427;48.476;19.102;2023-06-14T06:55:16;97319.53;;;25.41;37.48
79028;BME280;68427;48.476;19.102;2023-06-14T06:57:42;97314.59;;;25.49;38.35
79028;BME280;68427;48.476;19.102;2023-06-14T07:00:09;97316.66;;;24.67;36.45
79028;BME280;68427;48.476;19.102;2023-06-14T07:02:35;97311.53;;;24.33;37.77
79028;BME280;68427;48.476;19.102;2023-06-14T07:05:03;97307.59;;;24.44;38.69
79028;BME280;68427;48.476;19.102;2023-06-14T07:07:29;97307.78;;;25.24;38.25
79028;BME280;68427;48.476;19.102;2023-06-14T07:09:55;97314.59;;;25.49;35.87
79028;BME280;68427;48.476;19.102;2023-06-14T07:12:22;97306.59;;;26.04;34.49
79028;BME280;68427;48.476;19.102;2023-06-14T07:14:48;97305.81;;;26.40;33.75
79028;BME280;68427;48.476;19.102;2023-06-14T07:17:14;97307.56;;;25.94;34.21
79028;BME280;68427;48.476;19.102;2023-06-14T07:19:40;97312.38;;;26.61;32.63
79028;BME280;68427;48.476;19.102;2023-06-14T07:22:07;97305.47;;;27.36;31.57
79028;BME280;68427;48.476;19.102;2023-06-14T07:24:32;97318.28;;;28.11;31.71
79028;BME280;68427;48.476;19.102;2023-06-14T07:26:58;97313.81;;;27.97;30.56
79028;BME280;68427;48.476;19.102;2023-06-14T07:29:24;97300.69;;;27.33;31.09
79028;BME280;68427;48.476;19.102;2023-06-14T07:31:49;97301.56;;;28.57;30.18
79028;BME280;68427;48.476;19.102;2023-06-14T07:34:15;97305.81;;;28.32;30.13
79028;BME280;68427;48.476;19.102;2023-06-14T07:36:41;97307.00;;;28.00;30.87
79028;BME280;68427;48.476;19.102;2023-06-14T07:39:11;97305.69;;;27.49;30.85
79028;BME280;68427;48.476;19.102;2023-06-14T07:41:36;97298.81;;;27.34;32.38
79028;BME280;68427;48.476;19.102;2023-06-14T07:44:02;97309.34;;;27.84;30.61
79028;BME280;68427;48.476;19.102;2023-06-14T07:46:28;97305.19;;;29.05;30.11
79028;BME280;68427;48.476;19.102;2023-06-14T07:48:54;97304.09;;;29.15;29.84
79028;BME280;68427;48.476;19.102;2023-06-14T07:51:19;97303.47;;;30.03;28.38
79028;BME280;68427;48.476;19.102;2023-06-14T07:53:47;97310.06;;;30.14;28.83
79028;BME280;68427;48.476;19.102;2023-06-14T07:56:15;97302.41;;;30.25;28.14
79028;BME280;68427;48.476;19.102;2023-06-14T07:58:40;97313.66;;;31.11;27.98
79028;BME280;68427;48.476;19.102;2023-06-14T08:01:06;97307.41;;;31.32;27.55
79028;BME280;68427;48.476;19.102;2023-06-14T08:03:33;97307.28;;;31.28;25.78
79028;BME280;68427;48.476;19.102;2023-06-14T08:05:59;97309.63;;;31.51;26.95
79028;BME280;68427;48.476;19.102;2023-06-14T08:08:26;97310.38;;;31.06;26.86
79028;BME280;68427;48.476;19.102;2023-06-14T08:10:51;97313.03;;;31.27;26.49
79028;BME280;68427;48.476;19.102;2023-06-14T08:13:18;97316.38;;;31.11;25.54
79028;BME280;68427;48.476;19.102;2023-06-14T08:15:45;97315.25;;;30.28;26.70
79028;BME280;68427;48.476;19.102;2023-06-14T08:18:10;97314.41;;;29.77;27.91
79028;BME280;68427;48.476;19.102;2023-06-14T08:20:36;97316.50;;;29.07;28.31
79028;BME280;68427;48.476;19.102;2023-06-14T08:23:03;97310.84;;;29.38;27.92
79028;BME280;68427;48.476;19.102;2023-06-14T08:25:29;97309.50;;;29.15;28.20
79028;BME280;68427;48.476;19.102;2023-06-14T08:27:55;97311.84;;;29.16;27.92
79028;BME280;68427;48.476;19.102;2023-06-14T08:30:22;97311.00;;;30.19;28.00
79028;BME280;68427;48.476;19.102;2023-06-14T08:32:48;97312.75;;;30.44;27.17
79028;BME280;68427;48.476;19.102;2023-06-14T08:35:14;97303.66;;;32.19;26.29
79028;BME280;68427;48.476;19.102;2023-06-14T08:37:40;97310.47;;;33.22;22.20
79028;BME280;68427;48.476;19.102;2023-06-14T08:40:17;97316.34;;;34.35;21.79
79028;BME280;68427;48.476;19.102;2023-06-14T08:42:44;97303.63;;;34.58;21.84
79028;BME280;68427;48.476;19.102;2023-06-14T08:45:11;97305.78;;;34.33;20.83
79028;BME280;68427;48.476;19.102;2023-06-14T08:47:38;97305.78;;;34.69;20.46
79028;BME280;68427;48.476;19.102;2023-06-14T08:50:06;97300.38;;;35.31;20.48
79028;BME280;68427;48.476;19.102;2023-06-14T08:52:38;97293.06;;;34.02;20.52
79028;BME280;68427;48.476;19.102;2023-06-14T08:55:11;97300.66;;;34.48;20.11
79028;BME280;68427;48.476;19.102;2023-06-14T08:57:38;97292.03;;;31.81;23.54
79028;BME280;68427;48.476;19.102;2023-06-14T09:00:04;97292.75;;;32.84;22.58
79028;BME280;68427;48.476;19.102;2023-06-14T09:02:38;97301.91;;;33.83;21.38
